createdAt,value
2019-01-26T00:01:47.671Z,-0.44
2019-01-26T00:04:18.711Z,-0.51
2019-01-26T00:06:49.647Z,-0.36
2019-01-26T00:09:19.949Z,-0.36
2019-01-26T00:11:50.736Z,-0.33
2019-01-26T00:14:21.664Z,-0.28
2019-01-26T00:16:52.430Z,-0.34
2019-01-26T00:19:23.098Z,-0.32
2019-01-26T00:21:53.817Z,-0.44
2019-01-26T00:24:24.436Z,-0.30
2019-01-26T00:26:54.853Z,-0.34
2019-01-26T00:29:27.023Z,-0.32
2019-01-26T00:31:57.876Z,-0.25
2019-01-26T00:34:30.076Z,-0.30
2019-01-26T00:37:00.892Z,-0.18
2019-01-26T00:39:31.495Z,-0.18
2019-01-26T00:42:02.119Z,-0.27
2019-01-26T00:44:34.120Z,-0.31
2019-01-26T00:47:04.817Z,-0.27
2019-01-26T00:49:35.459Z,-0.24
2019-01-26T00:52:06.006Z,-0.30
2019-01-26T00:54:38.366Z,-0.24
2019-01-26T00:57:09.126Z,-0.16
2019-01-26T00:59:41.174Z,-0.20
2019-01-26T01:02:11.826Z,-0.18
2019-01-26T01:04:42.413Z,-0.22
2019-01-26T01:07:14.611Z,-0.22
2019-01-26T01:09:45.286Z,-0.20
2019-01-26T01:12:16.008Z,-0.22
2019-01-26T01:14:47.456Z,-0.16
2019-01-26T01:17:17.745Z,-0.16
2019-01-26T01:19:49.066Z,-0.16
2019-01-26T01:22:19.724Z,-0.18
2019-01-26T01:24:50.360Z,-0.39
2019-01-26T01:27:20.963Z,-0.18
2019-01-26T01:29:51.598Z,-0.08
2019-01-26T01:32:21.877Z,-0.02
2019-01-26T01:34:52.533Z,-0.08
2019-01-26T01:37:23.077Z,-0.22
2019-01-26T01:39:57.612Z,-0.12
2019-01-26T01:42:27.954Z,-0.20
2019-01-26T01:44:58.595Z,-0.31
2019-01-26T01:47:29.225Z,-0.25
2019-01-26T01:49:59.983Z,-0.43
2019-01-26T01:52:30.665Z,-0.36
2019-01-26T01:55:01.394Z,-0.26
2019-01-26T01:57:32.155Z,-0.24
2019-01-26T02:00:02.763Z,-0.18
2019-01-26T02:02:33.516Z,-0.30
2019-01-26T02:05:08.439Z,-0.21
2019-01-26T02:07:39.166Z,-0.14
2019-01-26T02:10:12.285Z,-0.30
2019-01-26T02:12:42.889Z,-0.33
2019-01-26T02:15:14.091Z,-0.16
2019-01-26T02:17:44.690Z,-0.07
2019-01-26T02:20:17.736Z,-0.16
2019-01-26T02:22:48.390Z,-0.02
2019-01-26T02:25:22.097Z,0.02
2019-01-26T02:27:52.865Z,-0.09
2019-01-26T02:30:24.074Z,-0.12
2019-01-26T02:32:54.912Z,0.00
2019-01-26T02:35:25.476Z,-0.06
2019-01-26T02:37:56.060Z,-0.02
2019-01-26T02:40:26.703Z,-0.16
2019-01-26T02:42:57.235Z,-0.22
2019-01-26T02:45:27.488Z,-0.10
2019-01-26T02:47:58.067Z,-0.14
2019-01-26T02:50:28.714Z,-0.06
2019-01-26T02:52:59.293Z,-0.05
2019-01-26T02:55:29.604Z,-0.12
2019-01-26T02:58:00.271Z,-0.09
2019-01-26T03:00:30.899Z,-0.02
2019-01-26T03:03:01.448Z,0.02
2019-01-26T03:05:32.094Z,0.00
2019-01-26T03:08:02.729Z,-0.04
2019-01-26T03:10:33.344Z,0.04
2019-01-26T03:13:04.002Z,0.01
2019-01-26T03:15:34.624Z,0.02
2019-01-26T03:18:06.361Z,0.08
2019-01-26T03:20:36.905Z,0.06
2019-01-26T03:23:07.449Z,0.00
2019-01-26T03:25:37.778Z,0.04
2019-01-26T03:28:08.485Z,-0.02
2019-01-26T03:30:39.136Z,0.09
2019-01-26T03:33:09.696Z,0.10
2019-01-26T03:35:40.416Z,0.02
2019-01-26T03:38:12.570Z,0.10
2019-01-26T03:40:42.896Z,0.04
2019-01-26T03:43:13.727Z,0.00
2019-01-26T03:45:44.425Z,-0.02
2019-01-26T03:48:15.126Z,0.16
2019-01-26T03:50:45.987Z,0.13
2019-01-26T03:53:16.695Z,0.04
2019-01-26T03:55:47.389Z,0.12
2019-01-26T03:58:17.924Z,0.10
2019-01-26T04:00:48.577Z,0.16
2019-01-26T04:03:19.187Z,0.17
2019-01-26T04:05:49.911Z,0.19
2019-01-26T04:08:20.544Z,0.22
2019-01-26T04:10:51.177Z,0.24
2019-01-26T04:13:21.901Z,0.22
2019-01-26T04:15:52.544Z,0.26
2019-01-26T04:18:23.473Z,0.19
2019-01-26T04:20:54.122Z,0.29
2019-01-26T04:23:24.642Z,0.20
2019-01-26T04:25:55.276Z,0.26
2019-01-26T04:28:25.942Z,0.12
2019-01-26T04:30:56.271Z,0.43
2019-01-26T04:33:26.985Z,0.30
2019-01-26T04:35:57.580Z,0.14
2019-01-26T04:38:28.229Z,0.17
2019-01-26T04:40:59.854Z,0.17
2019-01-26T04:43:30.431Z,0.24
2019-01-26T04:46:01.153Z,0.30
2019-01-26T04:48:31.771Z,0.35
2019-01-26T04:51:02.053Z,0.36
2019-01-26T04:53:32.724Z,0.31
2019-01-26T04:56:03.381Z,0.49
2019-01-26T04:58:34.138Z,0.60
2019-01-26T05:01:04.737Z,0.52
2019-01-26T05:03:35.333Z,0.49
2019-01-26T05:06:06.061Z,0.43
2019-01-26T05:08:36.749Z,0.54
2019-01-26T05:11:07.056Z,0.57
2019-01-26T05:13:38.107Z,0.72
2019-01-26T05:16:08.818Z,0.68
2019-01-26T05:18:39.349Z,0.72
2019-01-26T05:21:10.041Z,0.72
2019-01-26T05:23:40.307Z,0.72
2019-01-26T05:26:10.938Z,0.76
2019-01-26T05:28:41.484Z,0.59
2019-01-26T05:31:12.281Z,0.78
2019-01-26T05:33:43.000Z,0.75
2019-01-26T05:36:13.564Z,0.84
2019-01-26T05:38:44.239Z,0.78
2019-01-26T05:41:14.851Z,0.75
2019-01-26T05:43:45.576Z,0.80
2019-01-26T05:46:15.927Z,0.83
2019-01-26T05:48:46.140Z,0.93
2019-01-26T05:51:16.764Z,0.95
2019-01-26T05:53:49.032Z,0.88
2019-01-26T05:56:19.666Z,0.90
2019-01-26T05:58:50.503Z,0.88
2019-01-26T06:01:21.130Z,0.92
2019-01-26T06:03:51.672Z,0.98
2019-01-26T06:06:22.326Z,1.03
2019-01-26T06:08:52.920Z,1.10
2019-01-26T06:11:23.656Z,0.90
2019-01-26T06:13:54.381Z,1.06
2019-01-26T06:16:25.061Z,0.99
2019-01-26T06:18:55.579Z,0.96
2019-01-26T06:21:26.187Z,1.06
2019-01-26T06:23:57.025Z,1.25
2019-01-26T06:26:27.948Z,1.04
2019-01-26T06:28:59.169Z,1.18
2019-01-26T06:31:29.430Z,1.14
2019-01-26T06:34:01.623Z,1.06
2019-01-26T06:36:32.212Z,1.26
2019-01-26T06:39:04.424Z,1.14
2019-01-26T06:41:35.031Z,1.14
2019-01-26T06:44:05.714Z,1.11
2019-01-26T06:46:36.290Z,1.11
2019-01-26T06:49:06.905Z,1.14
2019-01-26T06:51:39.200Z,1.21
2019-01-26T06:54:09.717Z,1.26
2019-01-26T06:56:40.366Z,1.19
2019-01-26T06:59:10.868Z,1.28
2019-01-26T07:01:42.017Z,1.39
2019-01-26T07:04:14.237Z,1.26
2019-01-26T07:06:46.454Z,1.28
2019-01-26T07:09:16.749Z,1.22
2019-01-26T07:11:47.416Z,1.30
2019-01-26T07:14:18.050Z,1.50
2019-01-26T07:16:48.738Z,1.50
2019-01-26T07:19:19.007Z,1.40
2019-01-26T07:21:49.660Z,1.44
2019-01-26T07:24:20.374Z,1.55
2019-01-26T07:26:50.621Z,1.48
2019-01-26T07:29:21.110Z,1.59
2019-01-26T07:31:51.754Z,1.56
2019-01-26T07:34:22.270Z,1.58
2019-01-26T07:36:52.801Z,1.62
2019-01-26T07:39:23.355Z,1.63
2019-01-26T07:41:54.089Z,1.70
2019-01-26T07:44:24.607Z,1.69
2019-01-26T07:46:55.254Z,2.03
2019-01-26T07:49:25.874Z,1.97
2019-01-26T07:51:56.601Z,1.86
2019-01-26T07:54:27.233Z,1.86
2019-01-26T07:56:57.865Z,1.85
2019-01-26T07:59:28.485Z,1.90
2019-01-26T08:01:59.029Z,1.94
2019-01-26T08:04:29.661Z,2.04
2019-01-26T08:07:00.493Z,1.98
2019-01-26T08:09:33.783Z,2.02
2019-01-26T08:12:04.410Z,2.11
2019-01-26T08:14:34.628Z,2.18
2019-01-26T08:17:05.066Z,2.12
2019-01-26T08:19:36.521Z,2.24
2019-01-26T08:22:07.277Z,2.27
2019-01-26T08:24:37.992Z,2.21
2019-01-26T08:27:08.503Z,2.10
2019-01-26T08:29:39.257Z,2.18
2019-01-26T08:32:12.335Z,2.23
2019-01-26T08:34:42.971Z,2.28
2019-01-26T08:37:13.520Z,2.30
2019-01-26T08:39:44.260Z,2.32
2019-01-26T08:42:14.867Z,2.31
2019-01-26T08:44:45.506Z,2.46
2019-01-26T08:47:16.131Z,2.55
2019-01-26T08:49:46.763Z,2.60
2019-01-26T08:52:18.050Z,2.50
2019-01-26T08:54:49.185Z,2.51
2019-01-26T08:57:19.931Z,2.50
2019-01-26T08:59:50.623Z,2.57
2019-01-26T09:02:33.339Z,2.47
2019-01-26T09:05:05.140Z,2.50
2019-01-26T09:07:35.733Z,2.50
2019-01-26T09:10:07.540Z,2.56
2019-01-26T09:12:38.114Z,2.69
2019-01-26T09:15:10.273Z,2.75
2019-01-26T09:17:43.431Z,2.62
2019-01-26T09:20:19.228Z,2.66
2019-01-26T09:22:49.790Z,2.63
2019-01-26T09:25:20.051Z,2.63
2019-01-26T09:27:50.710Z,2.62
2019-01-26T09:30:23.605Z,2.68
2019-01-26T09:32:54.831Z,2.62
2019-01-26T09:35:25.397Z,2.68
2019-01-26T09:37:56.141Z,2.64
2019-01-26T09:40:28.162Z,2.70
2019-01-26T09:42:58.922Z,2.78
2019-01-26T09:45:29.592Z,2.85
2019-01-26T09:48:00.390Z,2.85
2019-01-26T09:50:30.960Z,2.88
2019-01-26T09:53:01.670Z,2.90
2019-01-26T09:55:32.419Z,2.97
2019-01-26T09:58:03.274Z,3.12
2019-01-26T10:00:33.869Z,3.02
2019-01-26T10:03:06.875Z,2.94
2019-01-26T10:05:39.703Z,3.02
2019-01-26T10:08:10.558Z,3.06
2019-01-26T10:10:42.925Z,3.07
2019-01-26T10:13:13.603Z,3.06
2019-01-26T10:15:44.326Z,3.07
2019-01-26T10:18:15.334Z,3.24
2019-01-26T10:20:45.869Z,3.14
2019-01-26T10:23:16.621Z,3.20
2019-01-26T10:25:48.665Z,3.32
2019-01-26T10:28:19.760Z,3.29
2019-01-26T10:30:51.960Z,3.32
2019-01-26T10:33:22.604Z,3.26
2019-01-26T10:36:04.203Z,3.28
2019-01-26T10:38:36.495Z,3.36
2019-01-26T10:41:08.796Z,3.36
2019-01-26T10:43:43.964Z,3.24
2019-01-26T10:46:14.737Z,3.44
2019-01-26T10:48:45.472Z,3.44
2019-01-26T10:51:16.078Z,3.48
2019-01-26T10:53:46.781Z,3.58
2019-01-26T10:56:17.451Z,3.64
2019-01-26T10:58:48.076Z,3.70
2019-01-26T11:01:18.596Z,3.80
2019-01-26T11:03:49.217Z,3.70
2019-01-26T11:06:19.746Z,3.66
2019-01-26T11:08:50.411Z,3.80
2019-01-26T11:11:21.023Z,3.78
2019-01-26T11:13:53.320Z,3.80
2019-01-26T11:16:24.072Z,3.96
2019-01-26T11:18:54.799Z,3.78
2019-01-26T11:21:25.622Z,3.90
2019-01-26T11:23:55.939Z,3.90
2019-01-26T11:26:26.549Z,3.89
2019-01-26T11:28:57.323Z,3.92
2019-01-26T11:31:28.581Z,3.88
2019-01-26T11:34:09.854Z,3.88
2019-01-26T11:36:42.299Z,3.81
2019-01-26T11:39:12.933Z,3.91
2019-01-26T11:41:43.563Z,3.86
2019-01-26T11:44:14.309Z,3.88
2019-01-26T11:46:44.921Z,3.94
2019-01-26T11:49:15.587Z,3.88
2019-01-26T11:51:45.875Z,4.04
2019-01-26T11:54:16.410Z,4.02
2019-01-26T11:56:48.699Z,3.93
2019-01-26T11:59:19.545Z,4.09
2019-01-26T12:01:51.772Z,4.08
2019-01-26T12:04:30.011Z,4.02
2019-01-26T12:07:02.379Z,4.05
2019-01-26T12:09:33.197Z,4.07
2019-01-26T12:12:04.882Z,4.09
2019-01-26T12:14:35.688Z,4.13
2019-01-26T12:17:06.223Z,4.26
2019-01-26T12:19:41.610Z,4.16
2019-01-26T12:22:12.263Z,4.12
2019-01-26T12:24:42.916Z,4.08
2019-01-26T12:27:13.561Z,4.06
2019-01-26T12:29:44.207Z,4.04
2019-01-26T12:32:14.727Z,4.15
2019-01-26T12:34:45.419Z,3.98
2019-01-26T12:37:15.755Z,3.99
2019-01-26T12:39:46.529Z,4.13
2019-01-26T12:42:17.169Z,4.11
2019-01-26T12:44:47.773Z,4.16
2019-01-26T12:47:19.237Z,4.06
2019-01-26T12:49:49.564Z,4.23
2019-01-26T12:52:20.407Z,4.18
2019-01-26T12:54:51.048Z,4.10
2019-01-26T12:57:21.600Z,4.06
2019-01-26T12:59:51.884Z,3.92
2019-01-26T13:02:22.496Z,3.98
2019-01-26T13:04:53.144Z,3.95
2019-01-26T13:07:23.679Z,4.04
2019-01-26T13:09:54.308Z,4.06
2019-01-26T13:12:24.594Z,4.18
2019-01-26T13:14:55.283Z,4.24
2019-01-26T13:17:26.412Z,4.10
2019-01-26T13:19:57.041Z,4.12
2019-01-26T13:22:27.675Z,4.06
2019-01-26T13:24:58.443Z,4.14
2019-01-26T13:27:29.135Z,4.22
2019-01-26T13:30:01.324Z,4.08
2019-01-26T13:32:31.760Z,4.05
2019-01-26T13:35:05.231Z,4.13
2019-01-26T13:37:37.110Z,4.10
2019-01-26T13:40:12.336Z,4.06
2019-01-26T13:42:42.983Z,4.20
2019-01-26T13:45:15.537Z,4.10
2019-01-26T13:47:46.173Z,4.04
2019-01-26T13:50:16.828Z,4.11
2019-01-26T13:52:51.324Z,4.16
2019-01-26T13:55:23.484Z,4.08
2019-01-26T13:57:54.086Z,4.20
2019-01-26T14:00:30.948Z,4.04
2019-01-26T14:03:03.305Z,4.05
2019-01-26T14:05:33.527Z,3.98
2019-01-26T14:08:04.127Z,4.16
2019-01-26T14:10:36.513Z,4.16
2019-01-26T14:13:07.144Z,4.16
2019-01-26T14:15:37.490Z,4.15
2019-01-26T14:18:08.109Z,4.17
2019-01-26T14:20:38.428Z,4.22
2019-01-26T14:23:08.922Z,4.34
2019-01-26T14:25:40.163Z,4.22
2019-01-26T14:28:10.831Z,4.32
2019-01-26T14:30:44.938Z,4.15
2019-01-26T14:33:15.675Z,4.21
2019-01-26T14:35:46.256Z,4.10
2019-01-26T14:38:16.827Z,4.08
2019-01-26T14:40:47.382Z,4.10
2019-01-26T14:43:17.748Z,4.02
2019-01-26T14:45:48.544Z,4.02
2019-01-26T14:48:18.789Z,4.05
2019-01-26T14:50:49.096Z,4.06
2019-01-26T14:53:19.735Z,4.08
2019-01-26T14:55:50.529Z,4.05
2019-01-26T14:58:21.205Z,4.06
2019-01-26T15:00:51.916Z,4.10
2019-01-26T15:03:22.786Z,4.06
2019-01-26T15:06:00.653Z,4.08
2019-01-26T15:08:31.496Z,4.10
2019-01-26T15:11:01.962Z,4.11
2019-01-26T15:13:32.779Z,4.08
2019-01-26T15:16:03.483Z,4.07
2019-01-26T15:18:36.433Z,4.08
2019-01-26T15:21:07.091Z,4.10
2019-01-26T15:23:37.856Z,4.12
2019-01-26T15:26:08.500Z,4.12
2019-01-26T15:28:42.959Z,4.10
2019-01-26T15:31:11.595Z,4.10
2019-01-26T15:33:42.244Z,4.04
2019-01-26T15:36:12.552Z,4.01
2019-01-26T15:38:43.179Z,4.01
2019-01-26T15:41:13.895Z,4.03
2019-01-26T15:43:44.883Z,4.06
2019-01-26T15:46:15.632Z,3.98
2019-01-26T15:48:46.355Z,3.94
2019-01-26T15:51:18.818Z,3.92
2019-01-26T15:53:49.500Z,3.92
2019-01-26T15:56:20.163Z,3.88
2019-01-26T15:58:50.915Z,3.96
2019-01-26T16:01:21.705Z,3.94
2019-01-26T16:03:52.372Z,3.90
2019-01-26T16:06:23.366Z,3.95
2019-01-26T16:08:54.152Z,3.98
2019-01-26T16:11:24.888Z,3.98
2019-01-26T16:13:55.206Z,3.98
2019-01-26T16:16:25.927Z,4.02
2019-01-26T16:18:56.649Z,4.00
2019-01-26T16:21:28.935Z,4.00
2019-01-26T16:23:59.676Z,3.94
2019-01-26T16:26:30.285Z,3.91
2019-01-26T16:29:01.061Z,3.95
2019-01-26T16:31:31.708Z,3.84
2019-01-26T16:34:02.148Z,3.87
2019-01-26T16:36:32.876Z,3.88
2019-01-26T16:39:05.040Z,3.93
2019-01-26T16:41:35.885Z,3.92
2019-01-26T16:44:06.451Z,4.00
2019-01-26T16:46:39.910Z,3.96
2019-01-26T16:49:10.489Z,3.99
2019-01-26T16:51:41.129Z,3.99
2019-01-26T16:54:11.882Z,3.98
2019-01-26T16:56:42.605Z,3.96
2019-01-26T16:59:13.304Z,3.95
2019-01-26T17:01:43.966Z,3.95
2019-01-26T17:04:14.310Z,3.97
2019-01-26T17:06:45.017Z,3.98
2019-01-26T17:09:15.721Z,3.73
2019-01-26T17:11:46.559Z,3.90
2019-01-26T17:14:17.228Z,3.92
2019-01-26T17:16:47.972Z,3.93
2019-01-26T17:19:18.780Z,3.86
2019-01-26T17:21:49.403Z,3.82
2019-01-26T17:24:19.952Z,3.84
2019-01-26T17:26:52.850Z,3.89
2019-01-26T17:29:23.038Z,3.94
2019-01-26T17:31:53.686Z,3.91
2019-01-26T17:34:30.081Z,3.96
2019-01-26T17:36:56.432Z,3.96
2019-01-26T17:39:28.231Z,3.94
2019-01-26T17:41:58.590Z,3.86
2019-01-26T17:44:30.208Z,3.88
2019-01-26T17:47:00.961Z,3.74
2019-01-26T17:49:31.677Z,3.84
2019-01-26T17:52:03.554Z,3.84
2019-01-26T17:54:33.880Z,3.78
2019-01-26T17:57:04.532Z,3.88
2019-01-26T17:59:35.217Z,3.94
2019-01-26T18:02:07.283Z,3.94
2019-01-26T18:04:37.942Z,3.93
2019-01-26T18:07:08.671Z,3.80
2019-01-26T18:09:39.300Z,3.92
2019-01-26T18:12:09.949Z,3.94
2019-01-26T18:14:40.700Z,3.96
2019-01-26T18:17:11.386Z,3.98
2019-01-26T18:19:42.035Z,3.98
2019-01-26T18:22:12.664Z,3.99
2019-01-26T18:24:43.315Z,3.78
2019-01-26T18:27:15.417Z,3.90
2019-01-26T18:29:47.990Z,3.97
2019-01-26T18:32:18.384Z,3.97
2019-01-26T18:34:48.686Z,3.90
2019-01-26T18:37:20.083Z,3.94
2019-01-26T18:39:50.803Z,3.94
2019-01-26T18:42:21.522Z,3.96
2019-01-26T18:44:52.161Z,3.99
2019-01-26T18:47:24.191Z,3.92
2019-01-26T18:49:54.489Z,3.99
2019-01-26T18:52:25.151Z,3.96
2019-01-26T18:54:55.944Z,3.90
2019-01-26T18:57:26.305Z,3.87
2019-01-26T18:59:59.668Z,3.97
2019-01-26T19:02:30.083Z,3.79
2019-01-26T19:05:03.963Z,3.82
2019-01-26T19:07:34.719Z,3.90
2019-01-26T19:10:08.805Z,3.90
2019-01-26T19:12:39.527Z,3.98
2019-01-26T19:15:13.776Z,3.96
2019-01-26T19:17:44.599Z,3.98
2019-01-26T19:20:16.160Z,3.98
2019-01-26T19:22:46.904Z,3.96
2019-01-26T19:25:21.849Z,3.85
2019-01-26T19:27:53.711Z,3.71
2019-01-26T19:30:24.608Z,3.80
2019-01-26T19:32:57.145Z,3.70
2019-01-26T19:35:27.820Z,3.88
2019-01-26T19:37:58.662Z,3.96
2019-01-26T19:40:29.170Z,4.06
2019-01-26T19:43:00.528Z,3.74
2019-01-26T19:45:31.923Z,3.86
2019-01-26T19:48:03.387Z,3.78
2019-01-26T19:50:35.774Z,3.88
2019-01-26T19:53:08.898Z,3.77
2019-01-26T19:55:39.890Z,3.88
2019-01-26T19:58:10.439Z,3.92
2019-01-26T20:00:42.431Z,3.79
2019-01-26T20:03:13.074Z,3.82
2019-01-26T20:05:48.066Z,3.90
2019-01-26T20:08:15.954Z,3.85
2019-01-26T20:10:46.732Z,3.88
2019-01-26T20:13:17.219Z,3.93
2019-01-26T20:15:48.001Z,3.93
2019-01-26T20:18:18.854Z,3.94
2019-01-26T20:20:53.408Z,3.98
2019-01-26T20:23:23.763Z,3.92
2019-01-26T20:25:54.384Z,3.91
2019-01-26T20:28:25.132Z,3.96
2019-01-26T20:30:55.906Z,3.92
2019-01-26T20:33:26.721Z,3.94
2019-01-26T20:35:58.350Z,4.02
2019-01-26T20:38:29.165Z,3.92
2019-01-26T20:40:59.746Z,3.94
2019-01-26T20:43:30.115Z,4.02
2019-01-26T20:46:00.770Z,4.04
2019-01-26T20:48:31.494Z,4.09
2019-01-26T20:51:02.229Z,3.98
2019-01-26T20:53:32.904Z,4.09
2019-01-26T20:56:03.748Z,4.14
2019-01-26T20:58:35.158Z,4.14
2019-01-26T21:01:05.911Z,4.06
2019-01-26T21:03:36.695Z,4.06
2019-01-26T21:06:07.252Z,4.14
2019-01-26T21:08:38.060Z,4.04
2019-01-26T21:11:09.572Z,4.13
2019-01-26T21:13:40.390Z,4.16
2019-01-26T21:16:11.768Z,4.23
2019-01-26T21:18:42.498Z,4.25
2019-01-26T21:21:13.232Z,4.21
2019-01-26T21:23:44.044Z,4.29
2019-01-26T21:26:14.824Z,4.36
2019-01-26T21:28:45.744Z,4.34
2019-01-26T21:31:16.447Z,4.38
2019-01-26T21:33:46.756Z,4.42
2019-01-26T21:36:19.163Z,4.48
2019-01-26T21:38:49.839Z,4.47
2019-01-26T21:41:20.530Z,4.52
2019-01-26T21:43:51.279Z,4.53
2019-01-26T21:46:21.993Z,4.54
2019-01-26T21:48:52.415Z,4.59
2019-01-26T21:51:23.369Z,4.58
2019-01-26T21:53:55.320Z,4.60
2019-01-26T21:56:25.920Z,4.58
2019-01-26T21:58:56.553Z,4.58
2019-01-26T22:01:27.639Z,4.66
2019-01-26T22:03:58.456Z,4.65
2019-01-26T22:06:28.815Z,4.66
2019-01-26T22:08:59.595Z,4.84
2019-01-26T22:11:30.219Z,4.80
2019-01-26T22:14:01.016Z,4.70
2019-01-26T22:16:31.694Z,4.74
2019-01-26T22:19:02.478Z,4.72
2019-01-26T22:21:33.055Z,4.70
2019-01-26T22:24:03.808Z,4.72
2019-01-26T22:26:36.126Z,4.74
2019-01-26T22:29:08.498Z,4.80
2019-01-26T22:31:39.300Z,4.82
2019-01-26T22:34:09.919Z,4.83
2019-01-26T22:36:40.556Z,4.81
2019-01-26T22:39:10.901Z,4.76
2019-01-26T22:41:41.616Z,4.90
2019-01-26T22:44:12.325Z,4.87
2019-01-26T22:46:42.953Z,4.89
2019-01-26T22:49:13.649Z,4.88
2019-01-26T22:51:44.338Z,4.82
2019-01-26T22:54:15.000Z,4.92
2019-01-26T22:56:45.240Z,4.88
2019-01-26T22:59:15.927Z,4.91
2019-01-26T23:01:46.470Z,4.90
2019-01-26T23:04:29.179Z,4.91
2019-01-26T23:07:06.135Z,5.06
2019-01-26T23:09:52.031Z,5.12
2019-01-26T23:12:43.877Z,5.00
2019-01-26T23:15:34.070Z,4.88
2019-01-26T23:18:25.908Z,4.91
2019-01-26T23:21:05.315Z,4.90
2019-01-26T23:23:48.013Z,4.96
2019-01-26T23:26:24.817Z,4.89
2019-01-26T23:29:01.764Z,4.80
2019-01-26T23:31:32.530Z,4.86
2019-01-26T23:34:03.164Z,4.94
2019-01-26T23:36:33.893Z,4.82
2019-01-26T23:39:06.070Z,5.04
2019-01-26T23:41:38.343Z,5.00
2019-01-26T23:44:09.142Z,4.99
2019-01-26T23:46:39.722Z,4.98
2019-01-26T23:49:10.320Z,4.91
2019-01-26T23:51:41.083Z,5.02
2019-01-26T23:54:11.609Z,4.90
2019-01-26T23:56:42.212Z,5.00
2019-01-26T23:59:12.861Z,5.10
